sensor_id;sensor_type;location;lat;lon;timestamp;P1;durP1;ratioP1;P2;durP2;ratioP2
33672;SDS011;20011;51.510;9.942;2022-09-03T00:02:15;3.78;;;1.20;;
33672;SDS011;20011;51.510;9.942;2022-09-03T00:04:54;3.10;;;1.10;;
33672;SDS011;20011;51.510;9.942;2022-09-03T00:07:48;4.55;;;1.00;;
33672;SDS011;20011;51.510;9.942;2022-09-03T00:13:19;4.03;;;1.08;;
33672;SDS011;20011;51.510;9.942;2022-09-03T00:15:52;7.13;;;1.42;;
33672;SDS011;20011;51.510;9.942;2022-09-03T00:18:23;2.67;;;1.13;;
33672;SDS011;20011;51.510;9.942;2022-09-03T00:21:08;3.25;;;1.10;;
33672;SDS011;20011;51.510;9.942;2022-09-03T00:23:41;3.60;;;1.05;;
33672;SDS011;20011;51.510;9.942;2022-09-03T00:28:40;4.40;;;0.90;;
33672;SDS011;20011;51.510;9.942;2022-09-03T00:31:36;3.60;;;1.10;;
33672;SDS011;20011;51.510;9.942;2022-09-03T00:34:15;3.75;;;1.05;;
33672;SDS011;20011;51.510;9.942;2022-09-03T00:36:54;1.17;;;1.08;;
33672;SDS011;20011;51.510;9.942;2022-09-03T00:39:22;3.83;;;1.55;;
33672;SDS011;20011;51.510;9.942;2022-09-03T00:53:35;4.72;;;1.23;;
33672;SDS011;20011;51.510;9.942;2022-09-03T00:56:12;4.30;;;1.10;;
33672;SDS011;20011;51.510;9.942;2022-09-03T01:07:28;6.97;;;1.40;;
33672;SDS011;20011;51.510;9.942;2022-09-03T01:10:04;1.58;;;1.20;;
33672;SDS011;20011;51.510;9.942;2022-09-03T01:15:24;2.00;;;1.20;;
33672;SDS011;20011;51.510;9.942;2022-09-03T01:29:29;2.53;;;1.15;;
33672;SDS011;20011;51.510;9.942;2022-09-03T01:32:12;4.68;;;1.20;;
33672;SDS011;20011;51.510;9.942;2022-09-03T01:37:39;4.95;;;1.40;;
33672;SDS011;20011;51.510;9.942;2022-09-03T01:43:21;2.67;;;1.33;;
33672;SDS011;20011;51.510;9.942;2022-09-03T01:46:23;1.70;;;1.40;;
33672;SDS011;20011;51.510;9.942;2022-09-03T01:51:27;2.67;;;1.40;;
33672;SDS011;20011;51.510;9.942;2022-09-03T01:59:30;4.10;;;1.10;;
33672;SDS011;20011;51.510;9.942;2022-09-03T02:05:04;4.63;;;1.52;;
33672;SDS011;20011;51.510;9.942;2022-09-03T02:07:37;1.88;;;1.30;;
33672;SDS011;20011;51.510;9.942;2022-09-03T02:10:10;2.80;;;1.73;;
33672;SDS011;20011;51.510;9.942;2022-09-03T02:12:45;2.22;;;1.70;;
33672;SDS011;20011;51.510;9.942;2022-09-03T02:15:22;2.63;;;1.40;;
33672;SDS011;20011;51.510;9.942;2022-09-03T02:17:52;3.78;;;1.60;;
33672;SDS011;20011;51.510;9.942;2022-09-03T02:20:23;4.55;;;2.22;;
33672;SDS011;20011;51.510;9.942;2022-09-03T02:22:54;3.53;;;1.67;;
33672;SDS011;20011;51.510;9.942;2022-09-03T02:25:23;4.75;;;1.60;;
33672;SDS011;20011;51.510;9.942;2022-09-03T02:27:55;3.60;;;1.77;;
33672;SDS011;20011;51.510;9.942;2022-09-03T02:30:23;3.35;;;2.30;;
33672;SDS011;20011;51.510;9.942;2022-09-03T02:32:50;5.25;;;1.95;;
33672;SDS011;20011;51.510;9.942;2022-09-03T02:35:17;7.28;;;2.75;;
33672;SDS011;20011;51.510;9.942;2022-09-03T02:37:44;7.93;;;2.55;;
33672;SDS011;20011;51.510;9.942;2022-09-03T02:40:11;3.80;;;2.40;;
33672;SDS011;20011;51.510;9.942;2022-09-03T02:42:39;4.03;;;2.33;;
33672;SDS011;20011;51.510;9.942;2022-09-03T02:45:09;5.15;;;2.63;;
33672;SDS011;20011;51.510;9.942;2022-09-03T02:47:45;4.20;;;2.35;;
33672;SDS011;20011;51.510;9.942;2022-09-03T02:50:17;6.85;;;2.53;;
33672;SDS011;20011;51.510;9.942;2022-09-03T02:52:44;4.95;;;2.50;;
33672;SDS011;20011;51.510;9.942;2022-09-03T02:55:11;3.17;;;2.08;;
33672;SDS011;20011;51.510;9.942;2022-09-03T02:57:39;2.83;;;2.28;;
33672;SDS011;20011;51.510;9.942;2022-09-03T03:00:06;8.43;;;2.85;;
33672;SDS011;20011;51.510;9.942;2022-09-03T03:02:34;3.85;;;2.00;;
33672;SDS011;20011;51.510;9.942;2022-09-03T03:05:01;7.80;;;2.20;;
33672;SDS011;20011;51.510;9.942;2022-09-03T03:07:32;4.13;;;1.70;;
33672;SDS011;20011;51.510;9.942;2022-09-03T03:10:03;3.45;;;1.85;;
33672;SDS011;20011;51.510;9.942;2022-09-03T03:12:30;4.28;;;1.73;;
33672;SDS011;20011;51.510;9.942;2022-09-03T03:14:57;4.82;;;2.08;;
33672;SDS011;20011;51.510;9.942;2022-09-03T03:17:24;6.47;;;2.17;;
33672;SDS011;20011;51.510;9.942;2022-09-03T03:19:51;1.83;;;1.55;;
33672;SDS011;20011;51.510;9.942;2022-09-03T03:22:18;3.78;;;2.17;;
33672;SDS011;20011;51.510;9.942;2022-09-03T03:24:45;3.00;;;2.03;;
33672;SDS011;20011;51.510;9.942;2022-09-03T03:27:15;2.67;;;1.98;;
33672;SDS011;20011;51.510;9.942;2022-09-03T03:29:44;4.07;;;1.90;;
33672;SDS011;20011;51.510;9.942;2022-09-03T03:32:11;1.55;;;1.45;;
33672;SDS011;20011;51.510;9.942;2022-09-03T03:34:38;1.88;;;1.42;;
33672;SDS011;20011;51.510;9.942;2022-09-03T03:37:05;6.35;;;1.80;;
33672;SDS011;20011;51.510;9.942;2022-09-03T03:39:32;2.92;;;1.50;;
33672;SDS011;20011;51.510;9.942;2022-09-03T03:41:59;1.85;;;1.65;;
33672;SDS011;20011;51.510;9.942;2022-09-03T03:44:26;3.42;;;2.13;;
33672;SDS011;20011;51.510;9.942;2022-09-03T03:46:55;3.70;;;2.08;;
33672;SDS011;20011;51.510;9.942;2022-09-03T03:49:22;3.92;;;1.80;;
33672;SDS011;20011;51.510;9.942;2022-09-03T03:51:49;4.05;;;2.03;;
33672;SDS011;20011;51.510;9.942;2022-09-03T03:54:17;3.20;;;1.83;;
33672;SDS011;20011;51.510;9.942;2022-09-03T03:56:45;2.80;;;1.50;;
33672;SDS011;20011;51.510;9.942;2022-09-03T03:59:20;2.92;;;1.55;;
33672;SDS011;20011;51.510;9.942;2022-09-03T04:01:48;2.05;;;1.58;;
33672;SDS011;20011;51.510;9.942;2022-09-03T04:04:16;2.85;;;1.80;;
33672;SDS011;20011;51.510;9.942;2022-09-03T04:06:43;5.82;;;1.83;;
33672;SDS011;20011;51.510;9.942;2022-09-03T04:09:10;4.68;;;1.67;;
33672;SDS011;20011;51.510;9.942;2022-09-03T04:11:37;5.72;;;1.90;;
33672;SDS011;20011;51.510;9.942;2022-09-03T04:14:05;3.65;;;1.60;;
33672;SDS011;20011;51.510;9.942;2022-09-03T04:16:32;3.35;;;1.70;;
33672;SDS011;20011;51.510;9.942;2022-09-03T04:18:59;5.43;;;1.63;;
33672;SDS011;20011;51.510;9.942;2022-09-03T04:21:28;5.22;;;1.58;;
33672;SDS011;20011;51.510;9.942;2022-09-03T04:23:56;6.65;;;1.40;;
33672;SDS011;20011;51.510;9.942;2022-09-03T04:26:28;3.35;;;1.40;;
33672;SDS011;20011;51.510;9.942;2022-09-03T04:28:57;2.90;;;1.83;;
33672;SDS011;20011;51.510;9.942;2022-09-03T04:31:26;4.07;;;1.80;;
33672;SDS011;20011;51.510;9.942;2022-09-03T04:33:53;5.82;;;1.70;;
33672;SDS011;20011;51.510;9.942;2022-09-03T04:36:21;6.97;;;2.22;;
33672;SDS011;20011;51.510;9.942;2022-09-03T04:38:50;7.63;;;1.70;;
33672;SDS011;20011;51.510;9.942;2022-09-03T04:41:21;3.40;;;1.85;;
33672;SDS011;20011;51.510;9.942;2022-09-03T04:43:53;2.47;;;1.50;;
33672;SDS011;20011;51.510;9.942;2022-09-03T04:46:22;8.30;;;1.77;;
33672;SDS011;20011;51.510;9.942;2022-09-03T04:48:53;2.63;;;1.73;;
33672;SDS011;20011;51.510;9.942;2022-09-03T04:51:22;2.65;;;1.35;;
33672;SDS011;20011;51.510;9.942;2022-09-03T04:53:54;5.25;;;1.92;;
33672;SDS011;20011;51.510;9.942;2022-09-03T04:56:24;7.93;;;1.92;;
33672;SDS011;20011;51.510;9.942;2022-09-03T04:58:57;3.25;;;1.77;;
33672;SDS011;20011;51.510;9.942;2022-09-03T05:01:28;3.72;;;1.92;;
33672;SDS011;20011;51.510;9.942;2022-09-03T05:03:56;3.95;;;1.90;;
33672;SDS011;20011;51.510;9.942;2022-09-03T05:06:25;3.00;;;1.70;;
33672;SDS011;20011;51.510;9.942;2022-09-03T05:08:53;5.55;;;2.42;;
33672;SDS011;20011;51.510;9.942;2022-09-03T05:11:21;5.78;;;2.08;;
33672;SDS011;20011;51.510;9.942;2022-09-03T05:13:51;14.18;;;1.77;;
33672;SDS011;20011;51.510;9.942;2022-09-03T05:16:20;3.75;;;1.80;;
33672;SDS011;20011;51.510;9.942;2022-09-03T05:18:50;2.25;;;1.35;;
33672;SDS011;20011;51.510;9.942;2022-09-03T05:23:46;3.85;;;1.60;;
33672;SDS011;20011;51.510;9.942;2022-09-03T05:28:53;10.45;;;1.80;;
33672;SDS011;20011;51.510;9.942;2022-09-03T05:31:23;5.45;;;1.70;;
33672;SDS011;20011;51.510;9.942;2022-09-03T05:33:52;5.85;;;1.50;;
33672;SDS011;20011;51.510;9.942;2022-09-03T05:36:24;3.05;;;1.58;;
33672;SDS011;20011;51.510;9.942;2022-09-03T05:38:54;3.80;;;1.70;;
33672;SDS011;20011;51.510;9.942;2022-09-03T05:41:24;4.70;;;1.92;;
33672;SDS011;20011;51.510;9.942;2022-09-03T05:43:52;4.82;;;2.05;;
33672;SDS011;20011;51.510;9.942;2022-09-03T05:46:22;3.08;;;2.20;;
33672;SDS011;20011;51.510;9.942;2022-09-03T05:48:57;4.63;;;2.33;;
33672;SDS011;20011;51.510;9.942;2022-09-03T05:51:26;3.97;;;2.38;;
33672;SDS011;20011;51.510;9.942;2022-09-03T05:53:53;3.92;;;1.70;;
33672;SDS011;20011;51.510;9.942;2022-09-03T05:56:22;5.60;;;1.77;;
33672;SDS011;20011;51.510;9.942;2022-09-03T05:58:51;4.67;;;1.77;;
33672;SDS011;20011;51.510;9.942;2022-09-03T06:06:24;3.42;;;1.88;;
33672;SDS011;20011;51.510;9.942;2022-09-03T06:08:53;3.05;;;1.55;;
33672;SDS011;20011;51.510;9.942;2022-09-03T06:11:21;2.85;;;1.65;;
33672;SDS011;20011;51.510;9.942;2022-09-03T06:13:54;3.35;;;1.45;;
33672;SDS011;20011;51.510;9.942;2022-09-03T06:16:28;3.92;;;1.20;;
33672;SDS011;20011;51.510;9.942;2022-09-03T06:18:58;7.70;;;1.50;;
33672;SDS011;20011;51.510;9.942;2022-09-03T06:21:26;6.45;;;1.45;;
33672;SDS011;20011;51.510;9.942;2022-09-03T06:23:54;2.60;;;1.27;;
33672;SDS011;20011;51.510;9.942;2022-09-03T06:26:25;9.90;;;1.58;;
33672;SDS011;20011;51.510;9.942;2022-09-03T06:28:55;10.38;;;1.50;;
33672;SDS011;20011;51.510;9.942;2022-09-03T06:31:22;6.63;;;1.42;;
33672;SDS011;20011;51.510;9.942;2022-09-03T06:33:51;10.02;;;1.73;;
33672;SDS011;20011;51.510;9.942;2022-09-03T06:36:20;11.25;;;1.63;;
33672;SDS011;20011;51.510;9.942;2022-09-03T06:38:52;3.83;;;1.38;;
33672;SDS011;20011;51.510;9.942;2022-09-03T06:41:22;2.88;;;1.60;;
33672;SDS011;20011;51.510;9.942;2022-09-03T06:43:55;5.32;;;1.20;;
33672;SDS011;20011;51.510;9.942;2022-09-03T06:46:29;4.32;;;1.70;;
33672;SDS011;20011;51.510;9.942;2022-09-03T06:48:58;2.05;;;1.17;;
33672;SDS011;20011;51.510;9.942;2022-09-03T06:51:26;3.55;;;1.33;;
33672;SDS011;20011;51.510;9.942;2022-09-03T06:54:05;5.47;;;1.07;;
33672;SDS011;20011;51.510;9.942;2022-09-03T06:56:34;2.42;;;1.55;;
33672;SDS011;20011;51.510;9.942;2022-09-03T06:59:09;5.72;;;1.50;;
33672;SDS011;20011;51.510;9.942;2022-09-03T07:01:39;1.88;;;1.10;;
33672;SDS011;20011;51.510;9.942;2022-09-03T07:04:11;3.10;;;1.15;;
33672;SDS011;20011;51.510;9.942;2022-09-03T07:06:44;7.00;;;1.40;;
33672;SDS011;20011;51.510;9.942;2022-09-03T07:09:11;1.50;;;1.08;;
33672;SDS011;20011;51.510;9.942;2022-09-03T07:11:41;1.52;;;1.10;;
33672;SDS011;20011;51.510;9.942;2022-09-03T07:14:14;5.07;;;1.80;;
33672;SDS011;20011;51.510;9.942;2022-09-03T07:19:11;2.42;;;1.20;;
33672;SDS011;20011;51.510;9.942;2022-09-03T07:21:39;2.97;;;1.33;;
33672;SDS011;20011;51.510;9.942;2022-09-03T07:24:14;4.80;;;1.20;;
33672;SDS011;20011;51.510;9.942;2022-09-03T07:26:42;1.90;;;1.08;;
33672;SDS011;20011;51.510;9.942;2022-09-03T07:29:11;3.67;;;1.35;;
33672;SDS011;20011;51.510;9.942;2022-09-03T07:31:40;2.42;;;1.55;;
33672;SDS011;20011;51.510;9.942;2022-09-03T07:34:09;2.15;;;1.10;;
33672;SDS011;20011;51.510;9.942;2022-09-03T07:36:41;1.70;;;1.13;;
33672;SDS011;20011;51.510;9.942;2022-09-03T07:39:14;2.50;;;1.55;;
33672;SDS011;20011;51.510;9.942;2022-09-03T07:41:42;1.35;;;1.13;;
33672;SDS011;20011;51.510;9.942;2022-09-03T07:44:12;2.15;;;1.10;;
33672;SDS011;20011;51.510;9.942;2022-09-03T07:46:41;1.60;;;1.13;;
33672;SDS011;20011;51.510;9.942;2022-09-03T07:49:10;3.40;;;1.17;;
33672;SDS011;20011;51.510;9.942;2022-09-03T07:51:38;2.75;;;1.35;;
33672;SDS011;20011;51.510;9.942;2022-09-03T07:54:06;1.30;;;1.10;;
33672;SDS011;20011;51.510;9.942;2022-09-03T07:56:35;2.50;;;1.48;;
33672;SDS011;20011;51.510;9.942;2022-09-03T07:59:03;2.35;;;1.30;;
33672;SDS011;20011;51.510;9.942;2022-09-03T08:01:32;4.93;;;1.42;;
33672;SDS011;20011;51.510;9.942;2022-09-03T08:04:00;2.63;;;1.20;;
33672;SDS011;20011;51.510;9.942;2022-09-03T08:06:30;2.53;;;1.45;;
33672;SDS011;20011;51.510;9.942;2022-09-03T08:08:59;1.40;;;1.10;;
33672;SDS011;20011;51.510;9.942;2022-09-03T08:11:32;7.18;;;1.15;;
33672;SDS011;20011;51.510;9.942;2022-09-03T08:14:04;1.30;;;1.08;;
33672;SDS011;20011;51.510;9.942;2022-09-03T08:16:34;2.20;;;1.20;;
33672;SDS011;20011;51.510;9.942;2022-09-03T08:19:02;3.13;;;1.30;;
33672;SDS011;20011;51.510;9.942;2022-09-03T08:21:30;1.70;;;1.15;;
33672;SDS011;20011;51.510;9.942;2022-09-03T08:23:57;3.28;;;1.80;;
33672;SDS011;20011;51.510;9.942;2022-09-03T08:26:32;3.03;;;1.50;;
33672;SDS011;20011;51.510;9.942;2022-09-03T08:29:01;2.88;;;1.25;;
33672;SDS011;20011;51.510;9.942;2022-09-03T08:31:30;3.45;;;1.52;;
33672;SDS011;20011;51.510;9.942;2022-09-03T08:33:58;4.93;;;1.30;;
33672;SDS011;20011;51.510;9.942;2022-09-03T08:36:36;9.43;;;1.20;;
33672;SDS011;20011;51.510;9.942;2022-09-03T08:39:05;6.32;;;1.50;;
33672;SDS011;20011;51.510;9.942;2022-09-03T08:44:38;3.55;;;1.30;;
33672;SDS011;20011;51.510;9.942;2022-09-03T08:52:55;4.68;;;1.45;;
33672;SDS011;20011;51.510;9.942;2022-09-03T08:55:50;3.10;;;1.30;;
33672;SDS011;20011;51.510;9.942;2022-09-03T08:58:21;5.80;;;1.25;;
33672;SDS011;20011;51.510;9.942;2022-09-03T09:04:02;7.45;;;1.20;;
33672;SDS011;20011;51.510;9.942;2022-09-03T09:06:55;2.38;;;1.40;;
33672;SDS011;20011;51.510;9.942;2022-09-03T09:09:30;3.63;;;1.33;;
33672;SDS011;20011;51.510;9.942;2022-09-03T09:15:13;3.85;;;1.52;;
33672;SDS011;20011;51.510;9.942;2022-09-03T09:20:25;3.47;;;1.20;;
33672;SDS011;20011;51.510;9.942;2022-09-03T09:23:14;6.50;;;1.30;;
33672;SDS011;20011;51.510;9.942;2022-09-03T09:25:55;1.50;;;1.23;;
33672;SDS011;20011;51.510;9.942;2022-09-03T09:28:28;3.88;;;1.02;;
33672;SDS011;20011;51.510;9.942;2022-09-03T09:31:00;2.20;;;1.02;;
33672;SDS011;20011;51.510;9.942;2022-09-03T09:33:30;1.35;;;1.05;;
33672;SDS011;20011;51.510;9.942;2022-09-03T09:36:01;1.98;;;1.23;;
33672;SDS011;20011;51.510;9.942;2022-09-03T09:38:33;2.58;;;1.05;;
33672;SDS011;20011;51.510;9.942;2022-09-03T09:41:15;2.15;;;1.10;;
33672;SDS011;20011;51.510;9.942;2022-09-03T09:44:01;3.38;;;1.38;;
33672;SDS011;20011;51.510;9.942;2022-09-03T09:46:34;1.40;;;1.30;;
33672;SDS011;20011;51.510;9.942;2022-09-03T09:54:37;1.92;;;1.08;;
33672;SDS011;20011;51.510;9.942;2022-09-03T09:57:07;2.10;;;1.15;;
33672;SDS011;20011;51.510;9.942;2022-09-03T09:59:43;6.93;;;1.42;;
33672;SDS011;20011;51.510;9.942;2022-09-03T10:02:12;2.80;;;1.10;;
33672;SDS011;20011;51.510;9.942;2022-09-03T10:04:48;2.28;;;1.13;;
33672;SDS011;20011;51.510;9.942;2022-09-03T10:10:06;3.83;;;1.00;;
33672;SDS011;20011;51.510;9.942;2022-09-03T10:12:48;4.18;;;1.17;;
33672;SDS011;20011;51.510;9.942;2022-09-03T10:18:06;2.67;;;1.13;;
33672;SDS011;20011;51.510;9.942;2022-09-03T10:21:00;2.97;;;1.42;;
33672;SDS011;20011;51.510;9.942;2022-09-03T10:26:33;6.63;;;1.48;;
33672;SDS011;20011;51.510;9.942;2022-09-03T10:29:03;1.10;;;1.00;;
33672;SDS011;20011;51.510;9.942;2022-09-03T10:37:23;8.10;;;1.40;;
33672;SDS011;20011;51.510;9.942;2022-09-03T10:45:49;1.88;;;0.90;;
33672;SDS011;20011;51.510;9.942;2022-09-03T10:51:18;7.90;;;0.95;;
33672;SDS011;20011;51.510;9.942;2022-09-03T11:08:43;1.17;;;0.90;;
33672;SDS011;20011;51.510;9.942;2022-09-03T11:11:14;1.95;;;1.13;;
33672;SDS011;20011;51.510;9.942;2022-09-03T11:14:00;4.03;;;1.35;;
33672;SDS011;20011;51.510;9.942;2022-09-03T11:16:48;2.28;;;1.02;;
33672;SDS011;20011;51.510;9.942;2022-09-03T11:19:23;6.40;;;1.20;;
33672;SDS011;20011;51.510;9.942;2022-09-03T11:21:58;6.03;;;1.80;;
33672;SDS011;20011;51.510;9.942;2022-09-03T11:24:26;3.15;;;0.85;;
33672;SDS011;20011;51.510;9.942;2022-09-03T11:35:35;1.10;;;0.80;;
33672;SDS011;20011;51.510;9.942;2022-09-03T11:38:18;2.80;;;1.08;;
33672;SDS011;20011;51.510;9.942;2022-09-03T11:41:00;1.65;;;1.08;;
33672;SDS011;20011;51.510;9.942;2022-09-03T11:43:36;5.38;;;1.85;;
33672;SDS011;20011;51.510;9.942;2022-09-03T11:48:51;6.28;;;1.10;;
33672;SDS011;20011;51.510;9.942;2022-09-03T11:53:56;2.80;;;1.10;;
33672;SDS011;20011;51.510;9.942;2022-09-03T11:56:28;1.60;;;0.95;;
33672;SDS011;20011;51.510;9.942;2022-09-03T11:59:04;1.35;;;1.00;;
33672;SDS011;20011;51.510;9.942;2022-09-03T12:01:32;1.65;;;1.15;;
33672;SDS011;20011;51.510;9.942;2022-09-03T12:04:05;0.90;;;0.77;;
33672;SDS011;20011;51.510;9.942;2022-09-03T12:09:43;3.42;;;1.05;;
33672;SDS011;20011;51.510;9.942;2022-09-03T12:12:29;3.45;;;1.02;;
33672;SDS011;20011;51.510;9.942;2022-09-03T12:17:51;1.35;;;0.90;;
33672;SDS011;20011;51.510;9.942;2022-09-03T12:20:39;1.90;;;0.82;;
33672;SDS011;20011;51.510;9.942;2022-09-03T12:23:11;1.48;;;1.10;;
33672;SDS011;20011;51.510;9.942;2022-09-03T12:26:03;5.70;;;1.25;;
33672;SDS011;20011;51.510;9.942;2022-09-03T12:28:38;4.63;;;1.15;;
33672;SDS011;20011;51.510;9.942;2022-09-03T12:33:51;1.20;;;0.80;;
33672;SDS011;20011;51.510;9.942;2022-09-03T12:36:39;1.80;;;0.93;;
33672;SDS011;20011;51.510;9.942;2022-09-03T12:39:15;0.70;;;0.70;;
33672;SDS011;20011;51.510;9.942;2022-09-03T12:42:08;1.05;;;0.90;;
33672;SDS011;20011;51.510;9.942;2022-09-03T12:44:49;1.90;;;1.15;;
33672;SDS011;20011;51.510;9.942;2022-09-03T12:47:17;1.08;;;0.80;;
33672;SDS011;20011;51.510;9.942;2022-09-03T12:50:07;2.15;;;0.95;;
33672;SDS011;20011;51.510;9.942;2022-09-03T12:52:38;3.83;;;0.80;;
33672;SDS011;20011;51.510;9.942;2022-09-03T12:58:04;3.15;;;1.02;;
33672;SDS011;20011;51.510;9.942;2022-09-03T13:06:12;0.65;;;0.65;;
33672;SDS011;20011;51.510;9.942;2022-09-03T13:08:52;2.78;;;0.90;;
33672;SDS011;20011;51.510;9.942;2022-09-03T13:11:25;1.63;;;0.80;;
33672;SDS011;20011;51.510;9.942;2022-09-03T13:14:06;15.90;;;1.00;;
33672;SDS011;20011;51.510;9.942;2022-09-03T13:27:14;0.88;;;0.70;;
33672;SDS011;20011;51.510;9.942;2022-09-03T13:30:01;0.98;;;0.90;;
33672;SDS011;20011;51.510;9.942;2022-09-03T13:35:46;3.53;;;1.60;;
33672;SDS011;20011;51.510;9.942;2022-09-03T13:44:48;6.93;;;1.30;;
33672;SDS011;20011;51.510;9.942;2022-09-03T13:46:59;1.30;;;0.98;;
33672;SDS011;20011;51.510;9.942;2022-09-03T13:49:41;5.05;;;0.77;;
33672;SDS011;20011;51.510;9.942;2022-09-03T13:55:25;3.25;;;0.95;;
33672;SDS011;20011;51.510;9.942;2022-09-03T13:57:53;2.27;;;0.90;;
33672;SDS011;20011;51.510;9.942;2022-09-03T14:00:46;3.40;;;0.90;;
33672;SDS011;20011;51.510;9.942;2022-09-03T14:03:46;3.53;;;0.85;;
33672;SDS011;20011;51.510;9.942;2022-09-03T14:14:28;1.75;;;0.93;;
33672;SDS011;20011;51.510;9.942;2022-09-03T14:20:02;1.17;;;1.02;;
33672;SDS011;20011;51.510;9.942;2022-09-03T14:25:25;2.03;;;0.80;;
33672;SDS011;20011;51.510;9.942;2022-09-03T14:27:54;0.98;;;0.70;;
33672;SDS011;20011;51.510;9.942;2022-09-03T14:30:48;1.52;;;0.90;;
33672;SDS011;20011;51.510;9.942;2022-09-03T14:33:27;1.67;;;0.70;;
33672;SDS011;20011;51.510;9.942;2022-09-03T14:36:08;1.85;;;1.05;;
33672;SDS011;20011;51.510;9.942;2022-09-03T14:38:55;0.88;;;0.82;;
33672;SDS011;20011;51.510;9.942;2022-09-03T14:50:10;4.13;;;0.77;;
33672;SDS011;20011;51.510;9.942;2022-09-03T14:56:01;3.45;;;0.90;;
33672;SDS011;20011;51.510;9.942;2022-09-03T14:58:48;1.95;;;1.20;;
33672;SDS011;20011;51.510;9.942;2022-09-03T15:01:35;1.00;;;0.88;;
33672;SDS011;20011;51.510;9.942;2022-09-03T15:04:22;1.48;;;1.10;;
33672;SDS011;20011;51.510;9.942;2022-09-03T15:07:26;3.55;;;1.10;;
33672;SDS011;20011;51.510;9.942;2022-09-03T15:13:23;2.28;;;0.85;;
33672;SDS011;20011;51.510;9.942;2022-09-03T15:24:26;2.60;;;0.95;;
33672;SDS011;20011;51.510;9.942;2022-09-03T15:30:13;1.13;;;0.90;;
33672;SDS011;20011;51.510;9.942;2022-09-03T15:38:32;5.53;;;1.00;;
33672;SDS011;20011;51.510;9.942;2022-09-03T15:41:16;1.77;;;0.93;;
33672;SDS011;20011;51.510;9.942;2022-09-03T15:44:10;4.05;;;0.95;;
33672;SDS011;20011;51.510;9.942;2022-09-03T15:55:10;1.25;;;0.93;;
33672;SDS011;20011;51.510;9.942;2022-09-03T15:57:43;2.67;;;1.48;;
33672;SDS011;20011;51.510;9.942;2022-09-03T16:00:38;1.00;;;0.70;;
33672;SDS011;20011;51.510;9.942;2022-09-03T16:03:08;2.15;;;1.25;;
33672;SDS011;20011;51.510;9.942;2022-09-03T16:08:56;2.03;;;1.00;;
33672;SDS011;20011;51.510;9.942;2022-09-03T16:11:36;4.53;;;1.10;;
33672;SDS011;20011;51.510;9.942;2022-09-03T16:19:21;1.10;;;0.75;;
33672;SDS011;20011;51.510;9.942;2022-09-03T16:22:06;3.13;;;1.23;;
33672;SDS011;20011;51.510;9.942;2022-09-03T16:24:51;1.55;;;1.23;;
33672;SDS011;20011;51.510;9.942;2022-09-03T16:27:53;2.00;;;1.10;;
33672;SDS011;20011;51.510;9.942;2022-09-03T16:33:36;2.47;;;1.08;;
33672;SDS011;20011;51.510;9.942;2022-09-03T16:39:02;1.35;;;1.20;;
33672;SDS011;20011;51.510;9.942;2022-09-03T16:41:42;2.10;;;1.20;;
33672;SDS011;20011;51.510;9.942;2022-09-03T17:01:16;4.45;;;1.67;;
33672;SDS011;20011;51.510;9.942;2022-09-03T17:18:12;1.55;;;1.20;;
33672;SDS011;20011;51.510;9.942;2022-09-03T17:31:26;3.92;;;0.98;;
33672;SDS011;20011;51.510;9.942;2022-09-03T17:39:47;1.85;;;1.10;;
33672;SDS011;20011;51.510;9.942;2022-09-03T17:51:04;1.77;;;1.52;;
33672;SDS011;20011;51.510;9.942;2022-09-03T17:53:51;2.13;;;1.13;;
33672;SDS011;20011;51.510;9.942;2022-09-03T17:56:24;1.55;;;1.00;;
33672;SDS011;20011;51.510;9.942;2022-09-03T17:59:07;2.47;;;1.05;;
33672;SDS011;20011;51.510;9.942;2022-09-03T18:02:02;1.15;;;0.90;;
33672;SDS011;20011;51.510;9.942;2022-09-03T18:04:42;5.32;;;1.33;;
33672;SDS011;20011;51.510;9.942;2022-09-03T18:13:10;5.40;;;0.93;;
33672;SDS011;20011;51.510;9.942;2022-09-03T18:15:48;1.17;;;1.08;;
33672;SDS011;20011;51.510;9.942;2022-09-03T18:18:27;3.35;;;1.20;;
33672;SDS011;20011;51.510;9.942;2022-09-03T18:21:02;1.42;;;1.02;;
33672;SDS011;20011;51.510;9.942;2022-09-03T18:24:02;2.85;;;1.13;;
33672;SDS011;20011;51.510;9.942;2022-09-03T18:26:51;3.25;;;1.38;;
33672;SDS011;20011;51.510;9.942;2022-09-03T18:30:04;2.63;;;1.10;;
33672;SDS011;20011;51.510;9.942;2022-09-03T18:32:52;1.20;;;1.00;;
33672;SDS011;20011;51.510;9.942;2022-09-03T18:35:38;6.65;;;1.70;;
33672;SDS011;20011;51.510;9.942;2022-09-03T18:38:27;6.10;;;1.08;;
33672;SDS011;20011;51.510;9.942;2022-09-03T18:44:19;3.22;;;1.02;;
33672;SDS011;20011;51.510;9.942;2022-09-03T18:53:56;1.45;;;1.00;;
33672;SDS011;20011;51.510;9.942;2022-09-03T18:57:25;3.80;;;1.10;;
33672;SDS011;20011;51.510;9.942;2022-09-03T19:00:20;6.68;;;1.00;;
33672;SDS011;20011;51.510;9.942;2022-09-03T19:09:42;2.20;;;0.90;;
33672;SDS011;20011;51.510;9.942;2022-09-03T19:15:28;2.35;;;1.30;;
33672;SDS011;20011;51.510;9.942;2022-09-03T19:18:35;3.15;;;1.38;;
33672;SDS011;20011;51.510;9.942;2022-09-03T19:21:45;2.65;;;1.95;;
33672;SDS011;20011;51.510;9.942;2022-09-03T19:24:38;1.60;;;1.02;;
33672;SDS011;20011;51.510;9.942;2022-09-03T19:54:51;2.63;;;1.98;;
33672;SDS011;20011;51.510;9.942;2022-09-03T19:57:41;1.83;;;1.60;;
33672;SDS011;20011;51.510;9.942;2022-09-03T20:00:51;5.32;;;1.73;;
33672;SDS011;20011;51.510;9.942;2022-09-03T20:03:37;3.72;;;1.17;;
33672;SDS011;20011;51.510;9.942;2022-09-03T20:06:23;2.42;;;1.02;;
33672;SDS011;20011;51.510;9.942;2022-09-03T20:09:09;1.90;;;1.10;;
33672;SDS011;20011;51.510;9.942;2022-09-03T20:12:02;3.22;;;1.10;;
33672;SDS011;20011;51.510;9.942;2022-09-03T20:14:35;2.95;;;1.25;;
33672;SDS011;20011;51.510;9.942;2022-09-03T20:23:00;2.17;;;1.02;;
33672;SDS011;20011;51.510;9.942;2022-09-03T20:36:47;1.35;;;1.10;;
33672;SDS011;20011;51.510;9.942;2022-09-03T20:39:49;1.77;;;1.30;;
33672;SDS011;20011;51.510;9.942;2022-09-03T20:43:02;1.33;;;1.10;;
33672;SDS011;20011;51.510;9.942;2022-09-03T20:45:44;1.23;;;0.93;;
33672;SDS011;20011;51.510;9.942;2022-09-03T20:48:36;4.65;;;1.10;;
33672;SDS011;20011;51.510;9.942;2022-09-03T20:51:10;1.13;;;0.95;;
33672;SDS011;20011;51.510;9.942;2022-09-03T21:13:12;3.45;;;1.48;;
33672;SDS011;20011;51.510;9.942;2022-09-03T21:19:10;4.40;;;1.40;;
33672;SDS011;20011;51.510;9.942;2022-09-03T21:24:48;1.65;;;1.42;;
33672;SDS011;20011;51.510;9.942;2022-09-03T21:27:22;2.65;;;1.55;;
33672;SDS011;20011;51.510;9.942;2022-09-03T21:29:57;6.22;;;1.30;;
33672;SDS011;20011;51.510;9.942;2022-09-03T21:32:50;9.27;;;1.58;;
33672;SDS011;20011;51.510;9.942;2022-09-03T21:35:26;1.35;;;1.20;;
33672;SDS011;20011;51.510;9.942;2022-09-03T21:38:07;2.55;;;1.30;;
33672;SDS011;20011;51.510;9.942;2022-09-03T21:44:02;2.38;;;1.30;;
33672;SDS011;20011;51.510;9.942;2022-09-03T21:46:46;5.63;;;1.35;;
33672;SDS011;20011;51.510;9.942;2022-09-03T21:49:22;1.85;;;1.35;;
33672;SDS011;20011;51.510;9.942;2022-09-03T21:52:00;3.72;;;1.40;;
33672;SDS011;20011;51.510;9.942;2022-09-03T21:54:32;11.95;;;1.75;;
33672;SDS011;20011;51.510;9.942;2022-09-03T21:57:06;4.55;;;1.13;;
33672;SDS011;20011;51.510;9.942;2022-09-03T22:02:24;3.47;;;1.40;;
33672;SDS011;20011;51.510;9.942;2022-09-03T22:04:52;3.10;;;1.35;;
33672;SDS011;20011;51.510;9.942;2022-09-03T22:10:11;2.90;;;1.48;;
33672;SDS011;20011;51.510;9.942;2022-09-03T22:15:27;1.98;;;1.48;;
33672;SDS011;20011;51.510;9.942;2022-09-03T22:18:05;4.07;;;1.50;;
33672;SDS011;20011;51.510;9.942;2022-09-03T22:20:43;2.95;;;1.30;;
33672;SDS011;20011;51.510;9.942;2022-09-03T22:23:20;3.67;;;1.50;;
33672;SDS011;20011;51.510;9.942;2022-09-03T22:28:37;4.60;;;1.30;;
33672;SDS011;20011;51.510;9.942;2022-09-03T22:33:57;4.53;;;1.35;;
33672;SDS011;20011;51.510;9.942;2022-09-03T22:36:34;3.78;;;1.88;;
33672;SDS011;20011;51.510;9.942;2022-09-03T22:41:58;2.95;;;1.35;;
33672;SDS011;20011;51.510;9.942;2022-09-03T22:55:50;2.47;;;1.55;;